Time;durP1;ratioP1;P1;durP2;ratioP2;P2;SDS_P1;SDS_P2;PMS_P1;PMS_P2;Temp;Humidity;BMP_temperature;BMP_pressure;BME280_temperature;BME280_humidity;BME280_pressure;Samples;Min_cycle;Max_cycle;Signal;HPM_P1;HPM_P2
2023/01/18 00:01:15;;;;;;;0.50;0.50;;;;;;;10.74;100.00;94233.25;5073102;28;20523;-58
2023/01/18 00:03:43;;;;;;;0.30;0.20;;;;;;;11.23;100.00;94304.09;5073629;28;20431;-58
2023/01/18 00:06:12;;;;;;;1.07;0.77;;;;;;;10.99;100.00;94308.81;5073686;28;20878;-58
2023/01/18 00:08:41;;;;;;;0.87;0.87;;;;;;;10.55;100.00;94246.59;5073778;28;20837;-58
2023/01/18 00:11:14;;;;;;;4.10;0.70;;;;;;;10.96;100.00;94320.78;5073239;28;20528;-58
2023/01/18 00:13:43;;;;;;;0.40;0.30;;;;;;;10.77;100.00;94320.91;5072801;28;20442;-58
2023/01/18 00:16:13;;;;;;;0.30;0.20;;;;;;;11.07;100.00;94316.88;5072733;28;20475;-58
2023/01/18 00:18:43;;;;;;;0.43;0.30;;;;;;;10.81;100.00;94318.44;5072192;28;20433;-59
2023/01/18 00:21:12;;;;;;;0.40;0.30;;;;;;;11.00;100.00;94318.34;5072031;28;20435;-59
2023/01/18 00:23:40;;;;;;;0.37;0.30;;;;;;;10.43;100.00;94290.53;5072781;28;20468;-59
2023/01/18 00:26:12;;;;;;;0.30;0.30;;;;;;;10.88;100.00;94313.53;5073036;28;20439;-59
2023/01/18 00:28:41;;;;;;;1.60;0.30;;;;;;;11.02;100.00;94337.41;5073403;28;20453;-58
2023/01/18 00:31:10;;;;;;;0.40;0.30;;;;;;;10.50;100.00;94267.13;5073235;28;20444;-58
2023/01/18 00:33:39;;;;;;;0.30;0.20;;;;;;;10.88;100.00;94347.22;5072952;28;20468;-58
2023/01/18 00:36:07;;;;;;;0.40;0.30;;;;;;;10.80;100.00;94341.50;5072735;28;20828;-58
2023/01/18 00:38:36;;;;;;;3.80;0.37;;;;;;;10.79;100.00;94318.75;5072552;28;20423;-58
2023/01/18 00:41:04;;;;;;;0.40;0.30;;;;;;;11.15;100.00;94318.84;5072271;28;20432;-59
2023/01/18 00:43:39;;;;;;;0.73;0.73;;;;;;;11.34;100.00;94324.00;5072211;28;20481;-58
2023/01/18 00:46:09;;;;;;;0.30;0.30;;;;;;;11.48;100.00;94319.47;5072812;28;20867;-58
2023/01/18 00:48:38;;;;;;;2.00;0.47;;;;;;;11.05;100.00;94324.34;5072325;28;20463;-59
2023/01/18 00:51:07;;;;;;;0.53;0.37;;;;;;;11.18;100.00;94328.06;5072298;28;20529;-59
2023/01/18 00:53:37;;;;;;;0.30;0.20;;;;;;;11.30;100.00;94313.22;5072512;28;20471;-59
2023/01/18 00:56:06;;;;;;;0.47;0.43;;;;;;;11.36;100.00;94311.22;5071689;28;20472;-59
2023/01/18 00:58:36;;;;;;;0.47;0.37;;;;;;;11.32;100.00;94308.41;5072184;28;21009;-59
2023/01/18 01:01:06;;;;;;;0.33;0.30;;;;;;;11.10;100.00;94268.56;5072755;28;20436;-59
2023/01/18 01:09:05;;;;;;;1.00;0.77;;;;;;;10.50;100.00;94286.44;5072360;28;20466;-59
2023/01/18 01:11:33;;;;;;;0.40;0.30;;;;;;;9.97;100.00;94279.91;5071996;28;20435;-59
2023/01/18 01:27:52;;;;;;;0.40;0.40;;;;;;;10.57;100.00;94252.41;5071849;28;20995;-59
2023/01/18 01:30:22;;;;;;;0.80;0.60;;;;;;;10.13;100.00;94194.69;5072074;28;20434;-59
2023/01/18 01:32:50;;;;;;;8.50;1.17;;;;;;;10.57;100.00;94251.63;5071866;28;20463;-59
2023/01/18 01:35:21;;;;;;;0.43;0.40;;;;;;;10.56;100.00;94253.47;5071949;28;20432;-60
2023/01/18 01:37:49;;;;;;;0.40;0.30;;;;;;;10.31;100.00;94263.75;5071700;28;20474;-59
2023/01/18 01:40:18;;;;;;;2.00;1.07;;;;;;;10.43;100.00;94246.31;5071426;28;20446;-60
2023/01/18 01:42:46;;;;;;;0.30;0.20;;;;;;;10.69;100.00;94249.25;5071790;28;20470;-59
2023/01/18 01:45:17;;;;;;;0.30;0.30;;;;;;;10.24;100.00;94205.09;5071789;28;20432;-60
2023/01/18 01:47:51;;;;;;;0.40;0.30;;;;;;;9.97;100.00;94182.00;5071721;28;20481;-59
2023/01/18 01:50:26;;;;;;;0.83;0.50;;;;;;;10.31;100.00;94235.41;5071807;28;20475;-60
2023/01/18 01:52:57;;;;;;;0.40;0.30;;;;;;;10.41;100.00;94240.53;5071769;28;20513;-60
2023/01/18 01:55:30;;;;;;;0.30;0.20;;;;;;;10.37;100.00;94230.81;5071329;28;20432;-60
2023/01/18 01:58:03;;;;;;;1.40;1.40;;;;;;;10.11;100.00;94239.19;5071895;28;20438;-59
2023/01/18 02:00:32;;;;;;;0.63;0.63;;;;;;;9.69;100.00;94154.72;5071546;28;20431;-60
2023/01/18 02:03:05;;;;;;;0.40;0.30;;;;;;;10.39;100.00;94226.78;5071140;28;20431;-60
2023/01/18 02:05:36;;;;;;;0.30;0.20;;;;;;;10.11;100.00;94233.91;5071687;28;20456;-60
2023/01/18 02:08:10;;;;;;;0.30;0.20;;;;;;;10.17;100.00;94221.34;5071609;28;20501;-60
2023/01/18 02:10:39;;;;;;;0.50;0.43;;;;;;;9.85;100.00;94177.19;5071876;28;20807;-60
2023/01/18 02:13:09;;;;;;;1.80;0.73;;;;;;;9.98;100.00;94178.28;5071587;28;20430;-60
2023/01/18 02:15:48;;;;;;;5.27;0.37;;;;;;;10.38;100.00;94230.50;5071550;28;20469;-60
2023/01/18 02:18:25;;;;;;;0.60;0.60;;;;;;;10.56;100.00;94223.53;5071454;28;20489;-60
2023/01/18 02:21:16;;;;;;;0.30;0.20;;;;;;;10.51;100.00;94221.78;5071536;28;20893;-60
2023/01/18 02:24:31;;;;;;;0.30;0.20;;;;;;;10.22;100.00;94234.50;5071372;28;20432;-60
2023/01/18 02:27:03;;;;;;;0.50;0.50;;;;;;;10.03;100.00;94184.28;5071512;28;20440;-59
2023/01/18 02:29:48;;;;;;;0.47;0.47;;;;;;;10.14;100.00;94241.25;5071728;28;20948;-60
2023/01/18 02:32:26;;;;;;;1.23;1.13;;;;;;;10.22;100.00;94231.84;5071376;28;20466;-59
2023/01/18 02:35:05;;;;;;;0.50;0.50;;;;;;;9.89;100.00;94201.97;5071235;28;20442;-59
2023/01/18 02:37:42;;;;;;;0.40;0.30;;;;;;;10.46;100.00;94224.53;5071598;28;20423;-59
2023/01/18 02:40:21;;;;;;;0.30;0.20;;;;;;;10.29;100.00;94191.78;5071379;28;20532;-59
2023/01/18 02:48:33;;;;;;;0.30;0.30;;;;;;;10.60;100.00;94206.75;5074874;28;20568;-59
2023/01/18 02:51:02;;;;;;;0.50;0.43;;;;;;;10.41;100.00;94200.78;5074715;28;20477;-59
2023/01/18 02:53:31;;;;;;;0.30;0.20;;;;;;;10.57;100.00;94204.72;5074609;28;20465;-58
2023/01/18 02:56:03;;;;;;;0.40;0.30;;;;;;;10.71;100.00;94215.28;5074977;28;20423;-58
2023/01/18 02:58:34;;;;;;;24.17;0.93;;;;;;;10.85;100.00;94218.72;5074143;28;20853;-58
2023/01/18 03:01:09;;;;;;;0.67;0.67;;;;;;;10.69;100.00;94222.75;5075021;28;20510;-58
2023/01/18 03:03:42;;;;;;;0.73;0.73;;;;;;;10.45;100.00;94206.28;5074741;28;20438;-58
2023/01/18 03:06:10;;;;;;;0.30;0.20;;;;;;;10.83;100.00;94234.13;5074581;28;20427;-58
2023/01/18 03:08:44;;;;;;;0.40;0.30;;;;;;;10.70;100.00;94237.59;5074337;28;21035;-59
2023/01/18 03:11:19;;;;;;;0.60;0.50;;;;;;;10.63;100.00;94213.31;5074819;28;20503;-58
2023/01/18 03:14:01;;;;;;;0.60;0.57;;;;;;;10.75;100.00;94205.69;5074542;28;20527;-60
2023/01/18 03:16:41;;;;;;;0.60;0.60;;;;;;;10.85;100.00;94232.72;5074507;28;20469;-59
2023/01/18 03:22:01;;;;;;;0.40;0.40;;;;;;;9.76;100.00;94192.19;5074492;28;20970;-59
2023/01/18 03:24:30;;;;;;;5.10;1.17;;;;;;;9.83;100.00;94189.94;5074305;28;20508;-59
2023/01/18 03:35:25;;;;;;;0.50;0.50;;;;;;;10.69;100.00;94238.66;5074042;28;20444;-58
2023/01/18 03:37:56;;;;;;;0.40;0.30;;;;;;;10.78;100.00;94231.56;5073938;28;20521;-58
2023/01/18 03:40:28;;;;;;;0.30;0.20;;;;;;;10.84;100.00;94225.09;5073917;28;20423;-58
2023/01/18 03:43:06;;;;;;;0.40;0.40;;;;;;;10.36;100.00;94237.19;5074044;28;20514;-58
2023/01/18 03:45:38;;;;;;;1.83;1.60;;;;;;;10.32;100.00;94237.00;5074234;28;20495;-58
2023/01/18 03:48:09;;;;;;;0.57;0.57;;;;;;;10.31;100.00;94255.81;5073844;28;20467;-58
2023/01/18 03:50:44;;;;;;;0.40;0.40;;;;;;;10.50;100.00;94208.84;5073808;28;20479;-59
2023/01/18 03:53:16;;;;;;;0.40;0.30;;;;;;;10.25;100.00;94138.59;5073711;28;20439;-58
2023/01/18 03:55:49;;;;;;;0.30;0.20;;;;;;;11.01;100.00;94235.84;5073491;28;20487;-58
2023/01/18 03:58:23;;;;;;;0.40;0.30;;;;;;;11.21;100.00;94239.94;5073470;28;20452;-58
2023/01/18 04:00:53;;;;;;;0.30;0.20;;;;;;;11.26;100.00;94240.63;5073542;28;20470;-58
2023/01/18 04:03:22;;;;;;;0.83;0.83;;;;;;;11.10;100.00;94228.78;5073870;28;20486;-58
2023/01/18 04:05:51;;;;;;;0.70;0.70;;;;;;;10.77;100.00;94243.25;5073985;28;20437;-58
2023/01/18 04:08:21;;;;;;;0.30;0.30;;;;;;;10.51;100.00;94239.53;5073490;28;20533;-57
2023/01/18 04:10:50;;;;;;;0.40;0.30;;;;;;;10.81;100.00;94245.03;5073712;28;20962;-57
2023/01/18 04:13:18;;;;;;;4.83;1.07;;;;;;;10.80;100.00;94243.44;5073481;28;20431;-58
2023/01/18 04:16:08;;;;;;;0.50;0.47;;;;;;;11.04;100.00;94245.09;5073052;28;20435;-57
2023/01/18 04:18:38;;;;;;;1.70;0.70;;;;;;;11.31;100.00;94247.66;5073539;28;20430;-57
2023/01/18 04:21:06;;;;;;;0.30;0.20;;;;;;;11.36;100.00;94223.69;5072995;28;20505;-57
2023/01/18 04:23:35;;;;;;;0.30;0.20;;;;;;;11.56;100.00;94244.44;5073042;28;20424;-57
2023/01/18 04:26:04;;;;;;;0.30;0.20;;;;;;;11.56;100.00;94244.44;5073342;28;20888;-57
2023/01/18 04:28:33;;;;;;;0.57;0.57;;;;;;;11.27;100.00;94250.16;5073234;28;20917;-57
2023/01/18 04:31:01;;;;;;;0.40;0.30;;;;;;;11.33;100.00;94256.88;5072943;28;20915;-57
2023/01/18 04:33:30;;;;;;;13.13;0.40;;;;;;;11.41;100.00;94253.53;5072825;28;20427;-57
2023/01/18 04:36:00;;;;;;;0.30;0.20;;;;;;;11.22;100.00;94204.38;5072768;28;20945;-57
2023/01/18 04:38:28;;;;;;;0.30;0.20;;;;;;;11.47;100.00;94260.31;5072774;28;20492;-57
2023/01/18 04:40:56;;;;;;;1.00;1.00;;;;;;;11.42;100.00;94257.75;5072565;28;20879;-57
2023/01/18 04:43:25;;;;;;;0.30;0.20;;;;;;;11.31;100.00;94247.66;5072629;28;20939;-57
2023/01/18 04:45:54;;;;;;;0.30;0.20;;;;;;;11.65;100.00;94266.53;5072548;28;20963;-57
2023/01/18 04:48:23;;;;;;;0.30;0.20;;;;;;;11.73;100.00;94267.72;5072301;28;20511;-58
2023/01/18 04:50:52;;;;;;;0.60;0.60;;;;;;;11.86;100.00;94280.16;5072356;28;20611;-58
2023/01/18 04:53:22;;;;;;;0.30;0.20;;;;;;;11.89;100.00;94279.56;5072377;28;20427;-58
2023/01/18 04:55:50;;;;;;;0.30;0.30;;;;;;;11.87;100.00;94263.13;5072769;28;20486;-58
2023/01/18 04:58:18;;;;;;;0.30;0.20;;;;;;;11.97;100.00;94268.19;5072479;28;20448;-58
2023/01/18 05:00:47;;;;;;;1.07;0.93;;;;;;;11.49;100.00;94205.06;5071668;28;20437;-58
2023/01/18 05:03:15;;;;;;;0.40;0.40;;;;;;;11.96;100.00;94256.00;5071420;28;20425;-58
2023/01/18 05:05:44;;;;;;;1.90;0.50;;;;;;;12.00;100.00;94256.97;5071515;28;20460;-58
2023/01/18 05:08:12;;;;;;;0.30;0.20;;;;;;;12.05;100.00;94272.78;5070902;28;20813;-58
2023/01/18 05:10:42;;;;;;;2.20;0.77;;;;;;;12.10;100.00;94259.38;5071500;28;20479;-58
2023/01/18 05:13:10;;;;;;;0.30;0.20;;;;;;;11.96;100.00;94250.69;5071254;28;20420;-59
2023/01/18 05:15:38;;;;;;;0.30;0.30;;;;;;;12.18;100.00;94285.19;5071319;28;20431;-59
2023/01/18 05:18:07;;;;;;;0.50;0.50;;;;;;;12.17;100.00;94277.53;5071527;28;20435;-59
2023/01/18 05:20:35;;;;;;;2.77;2.57;;;;;;;12.20;100.00;94288.31;5071931;28;20428;-59
2023/01/18 05:23:09;;;;;;;0.30;0.20;;;;;;;12.27;100.00;94286.00;5071848;28;20434;-59
2023/01/18 05:25:39;;;;;;;0.30;0.20;;;;;;;12.41;100.00;94280.63;5071725;28;20440;-59
2023/01/18 05:28:09;;;;;;;0.40;0.40;;;;;;;12.32;100.00;94280.56;5071673;28;21027;-59
2023/01/18 05:30:39;;;;;;;0.40;0.30;;;;;;;12.40;100.00;94293.13;5071533;28;20476;-59
2023/01/18 05:33:08;;;;;;;0.87;0.87;;;;;;;12.24;100.00;94256.63;5071376;28;20913;-59
2023/01/18 05:35:36;;;;;;;6.00;0.57;;;;;;;12.40;100.00;94308.28;5071655;28;20545;-59
2023/01/18 05:38:05;;;;;;;0.40;0.30;;;;;;;12.36;100.00;94308.13;5071849;28;20434;-59
2023/01/18 05:40:33;;;;;;;0.30;0.20;;;;;;;12.35;100.00;94313.72;5071424;28;20952;-59
2023/01/18 05:43:01;;;;;;;0.40;0.30;;;;;;;12.46;100.00;94315.84;5070836;28;20493;-59
2023/01/18 05:45:31;;;;;;;2.50;0.80;;;;;;;12.27;100.00;94325.09;5071307;28;20536;-60
2023/01/18 05:47:59;;;;;;;0.40;0.40;;;;;;;12.28;100.00;94324.00;5071517;28;20812;-60
2023/01/18 05:50:28;;;;;;;3.03;0.63;;;;;;;12.37;100.00;94328.28;5071082;28;20525;-60
2023/01/18 05:52:57;;;;;;;11.83;2.57;;;;;;;12.25;100.00;94319.28;5070721;28;20990;-60
2023/01/18 05:55:26;;;;;;;0.40;0.30;;;;;;;12.26;100.00;94304.94;5071116;28;20442;-60
2023/01/18 05:57:55;;;;;;;0.80;0.57;;;;;;;12.48;100.00;94350.06;5071205;28;20425;-60
2023/01/18 06:00:23;;;;;;;1.50;0.50;;;;;;;12.56;100.00;94350.13;5071415;28;20525;-59
2023/01/18 06:02:54;;;;;;;0.50;0.40;;;;;;;12.57;100.00;94349.03;5071462;28;20524;-60
2023/01/18 06:05:24;;;;;;;0.73;0.73;;;;;;;12.51;100.00;94346.81;5071301;28;20909;-59
2023/01/18 06:07:53;;;;;;;1.53;1.43;;;;;;;12.48;100.00;94337.56;5071440;28;20432;-60
2023/01/18 06:10:21;;;;;;;1.37;1.37;;;;;;;12.43;100.00;94340.34;5070841;28;20469;-58
2023/01/18 06:12:49;;;;;;;0.40;0.30;;;;;;;12.40;99.97;94330.31;5071655;28;20460;-59
2023/01/18 06:15:18;;;;;;;1.57;1.50;;;;;;;12.53;100.00;94339.31;5071563;28;20466;-59
2023/01/18 06:17:46;;;;;;;0.50;0.40;;;;;;;11.98;100.00;94254.63;5071608;28;20431;-58
2023/01/18 06:20:17;;;;;;;0.40;0.30;;;;;;;12.22;100.00;94296.78;5074598;28;20522;-59
2023/01/18 06:22:46;;;;;;;1.03;1.03;;;;;;;12.37;100.00;94352.19;5074579;28;20472;-58
2023/01/18 06:25:15;;;;;;;0.83;0.47;;;;;;;12.31;100.00;94337.47;5074806;28;20465;-59
2023/01/18 06:27:44;;;;;;;0.40;0.40;;;;;;;12.34;100.00;94344.84;5075027;28;20425;-58
2023/01/18 06:30:13;;;;;;;0.40;0.30;;;;;;;12.30;100.00;94343.88;5074858;28;20521;-57
2023/01/18 06:32:41;;;;;;;1.37;1.27;;;;;;;12.25;100.00;94341.34;5074914;28;20424;-58
2023/01/18 06:35:10;;;;;;;0.60;0.60;;;;;;;12.11;100.00;94345.94;5074577;28;20442;-58
2023/01/18 06:37:40;;;;;;;1.40;1.30;;;;;;;12.18;100.00;94364.88;5074895;28;20440;-58
2023/01/18 06:40:09;;;;;;;1.10;0.70;;;;;;;12.15;100.00;94349.53;5075163;28;20443;-58
2023/01/18 06:42:38;;;;;;;0.40;0.30;;;;;;;11.86;100.00;94314.66;5074859;28;20871;-59
2023/01/18 06:45:07;;;;;;;0.60;0.60;;;;;;;11.85;100.00;94340.41;5074598;28;21025;-58
2023/01/18 06:47:35;;;;;;;0.40;0.30;;;;;;;11.97;100.00;94348.63;5074897;28;20861;-58
2023/01/18 06:50:04;;;;;;;1.17;1.17;;;;;;;12.08;100.00;94352.63;5074591;28;20486;-59
2023/01/18 06:52:32;;;;;;;1.30;1.30;;;;;;;12.02;100.00;94342.41;5074762;28;20463;-59
2023/01/18 06:55:02;;;;;;;1.23;0.80;;;;;;;12.09;100.00;94356.06;5074455;28;20471;-59
2023/01/18 06:57:31;;;;;;;2.40;2.30;;;;;;;11.76;100.00;94318.34;5074270;28;20432;-59
2023/01/18 07:00:00;;;;;;;4.80;1.07;;;;;;;12.10;100.00;94366.38;5074373;28;20930;-63
2023/01/18 07:02:29;;;;;;;2.90;2.00;;;;;;;12.07;100.00;94368.84;5074614;28;20430;-60
2023/01/18 07:04:57;;;;;;;0.53;0.53;;;;;;;12.23;100.00;94364.75;5073811;28;20489;-59
2023/01/18 07:07:26;;;;;;;0.40;0.30;;;;;;;12.23;100.00;94353.34;5073981;28;20424;-60
2023/01/18 07:09:54;;;;;;;1.87;1.73;;;;;;;12.17;100.00;94346.59;5073561;28;20482;-60
2023/01/18 07:12:24;;;;;;;2.70;2.60;;;;;;;12.42;100.00;94346.00;5073494;28;20927;-59
2023/01/18 07:14:52;;;;;;;8.57;3.93;;;;;;;12.61;100.00;94371.25;5073465;28;20437;-59
2023/01/18 07:17:20;;;;;;;1.63;1.53;;;;;;;12.70;100.00;94376.63;5073560;28;20461;-60
2023/01/18 07:19:49;;;;;;;1.77;1.67;;;;;;;12.74;100.00;94372.28;5074406;28;20468;-59
2023/01/18 07:22:17;;;;;;;2.43;2.30;;;;;;;12.46;100.00;94365.53;5073110;28;20523;-59
2023/01/18 07:24:45;;;;;;;3.37;1.77;;;;;;;12.44;100.00;94365.06;5073567;28;20857;-59
2023/01/18 07:27:14;;;;;;;0.73;0.73;;;;;;;11.96;100.00;94309.13;5073804;28;20515;-59
2023/01/18 07:29:43;;;;;;;1.37;1.37;;;;;;;12.32;100.00;94357.63;5073087;28;20430;-62
2023/01/18 07:32:12;;;;;;;1.13;1.13;;;;;;;12.40;100.00;94364.09;5073599;28;20459;-60
2023/01/18 07:34:40;;;;;;;2.00;1.40;;;;;;;12.38;100.00;94372.38;5073624;28;20920;-60
2023/01/18 07:37:08;;;;;;;2.10;2.00;;;;;;;12.43;100.00;94353.66;5074012;28;20519;-60
2023/01/18 07:39:37;;;;;;;0.40;0.37;;;;;;;12.41;100.00;94358.47;5073589;28;20439;-60
2023/01/18 07:42:05;;;;;;;0.80;0.80;;;;;;;12.45;100.00;94367.41;5073016;28;20444;-60
2023/01/18 07:44:33;;;;;;;0.30;0.30;;;;;;;12.54;100.00;94370.13;5073713;28;20478;-59
2023/01/18 07:47:03;;;;;;;3.00;2.07;;;;;;;12.42;100.00;94330.81;5073718;28;20867;-60
2023/01/18 07:49:31;;;;;;;3.43;1.10;;;;;;;12.88;100.00;94362.31;5073375;28;20833;-59
2023/01/18 07:52:00;;;;;;;0.80;0.80;;;;;;;12.50;100.00;94284.09;5073387;28;20556;-59
2023/01/18 07:54:28;;;;;;;0.40;0.40;;;;;;;13.03;100.00;94359.25;5073240;28;20443;-59
2023/01/18 07:56:56;;;;;;;0.50;0.50;;;;;;;13.06;99.42;94352.53;5073580;28;20456;-59
2023/01/18 07:59:26;;;;;;;0.50;0.40;;;;;;;13.17;98.45;94369.81;5073050;28;20565;-61
2023/01/18 08:01:55;;;;;;;1.27;0.50;;;;;;;13.07;97.38;94378.09;5073177;28;20511;-59
2023/01/18 08:04:25;;;;;;;0.50;0.30;;;;;;;13.07;95.65;94380.75;5073056;28;20441;-59
2023/01/18 08:06:53;;;;;;;0.90;0.50;;;;;;;13.15;95.21;94374.69;5073042;28;20468;-59
2023/01/18 08:09:21;;;;;;;0.60;0.60;;;;;;;13.14;93.81;94379.22;5073213;28;20456;-60
2023/01/18 08:11:50;;;;;;;1.27;1.23;;;;;;;13.18;92.01;94398.78;5072768;28;20553;-60
2023/01/18 08:14:19;;;;;;;1.00;1.00;;;;;;;13.25;91.24;94399.13;5072896;28;20622;-60
2023/01/18 08:16:47;;;;;;;0.57;0.57;;;;;;;13.40;92.23;94383.84;5072776;28;20524;-59
2023/01/18 08:19:16;;;;;;;2.63;2.43;;;;;;;13.26;91.09;94347.47;5073001;28;20434;-59
2023/01/18 08:21:47;;;;;;;11.63;2.63;;;;;;;13.44;90.64;94374.91;5072954;28;20457;-60
2023/01/18 08:24:16;;;;;;;6.50;3.97;;;;;;;13.55;91.20;94381.53;5072876;28;20475;-59
2023/01/18 08:26:44;;;;;;;0.80;0.80;;;;;;;13.64;88.32;94358.34;5072840;28;20460;-59
2023/01/18 08:29:12;;;;;;;0.40;0.40;;;;;;;13.76;86.03;94355.88;5072779;28;20429;-59
2023/01/18 08:31:41;;;;;;;0.50;0.50;;;;;;;13.79;84.64;94362.44;5072342;28;20484;-59
2023/01/18 08:34:09;;;;;;;0.60;0.60;;;;;;;13.76;83.83;94371.84;5072882;28;20418;-59
2023/01/18 08:36:37;;;;;;;0.30;0.23;;;;;;;13.87;81.67;94359.00;5072806;28;20436;-59
2023/01/18 08:39:07;;;;;;;0.80;0.80;;;;;;;14.00;81.71;94371.41;5072318;28;20472;-59
2023/01/18 08:41:36;;;;;;;4.10;1.10;;;;;;;13.75;79.74;94278.97;5071579;28;20437;-60
2023/01/18 08:44:05;;;;;;;0.90;0.73;;;;;;;15.04;76.81;94364.84;5072460;28;20430;-62
2023/01/18 08:46:35;;;;;;;0.50;0.40;;;;;;;15.43;76.02;94364.50;5072821;28;20426;-64
2023/01/18 08:49:04;;;;;;;0.70;0.70;;;;;;;15.67;71.06;94358.59;5072484;28;20456;-63
2023/01/18 08:51:33;;;;;;;0.50;0.40;;;;;;;16.31;68.61;94362.53;5072090;28;21098;-64
2023/01/18 08:54:01;;;;;;;0.80;0.80;;;;;;;17.04;66.54;94373.47;5072292;28;20561;-61
2023/01/18 08:56:31;;;;;;;1.60;0.90;;;;;;;17.52;65.92;94356.66;5071616;28;20434;-61
2023/01/18 08:58:59;;;;;;;2.60;2.50;;;;;;;18.36;63.49;94358.44;5072406;28;20437;-62
2023/01/18 09:01:28;;;;;;;1.00;0.60;;;;;;;18.93;59.93;94356.19;5072099;28;20513;-63
2023/01/18 09:03:57;;;;;;;1.00;1.00;;;;;;;19.32;60.17;94359.06;5072431;28;20556;-67
2023/01/18 09:06:30;;;;;;;7.53;0.40;;;;;;;19.51;53.71;94337.66;5071950;28;20460;-69
2023/01/18 09:08:59;;;;;;;0.40;0.20;;;;;;;20.18;53.68;94361.47;5071862;28;20438;-67
2023/01/18 09:11:28;;;;;;;0.40;0.30;;;;;;;20.94;52.86;94348.38;5071242;28;20565;-62
2023/01/18 09:13:58;;;;;;;0.60;0.57;;;;;;;21.33;50.13;94310.19;5071175;28;20437;-60
2023/01/18 09:16:29;;;;;;;0.50;0.37;;;;;;;22.27;49.38;94338.94;5071477;28;20414;-59
2023/01/18 09:18:58;;;;;;;1.23;1.13;;;;;;;22.36;49.57;94341.38;5071365;28;20551;-59
2023/01/18 09:21:28;;;;;;;0.50;0.40;;;;;;;22.29;49.30;94344.75;5071318;28;21125;-59
2023/01/18 09:23:56;;;;;;;0.93;0.93;;;;;;;22.41;49.50;94351.84;5071687;28;20426;-58
2023/01/18 09:26:26;;;;;;;0.50;0.40;;;;;;;22.28;47.52;94335.13;5071729;28;20457;-58
2023/01/18 09:28:55;;;;;;;3.43;0.90;;;;;;;21.86;49.64;94338.00;5071649;28;20484;-58
2023/01/18 09:31:26;;;;;;;1.03;0.80;;;;;;;21.91;46.03;94326.09;5071269;28;21018;-58
2023/01/18 09:33:56;;;;;;;0.40;0.33;;;;;;;20.76;49.26;94356.13;5071434;28;20437;-59
2023/01/18 09:36:44;;;;;;;1.90;0.70;;;;;;;21.60;50.01;94331.81;5071492;28;21160;-58
2023/01/18 09:39:12;;;;;;;2.63;1.70;;;;;;;19.72;51.57;94348.91;5071456;28;20528;-58
2023/01/18 09:41:43;;;;;;;0.70;0.70;;;;;;;19.31;52.20;94344.06;5071610;28;20477;-59
2023/01/18 09:44:20;;;;;;;7.80;1.97;;;;;;;20.86;49.81;94358.25;5071589;28;20495;-59
2023/01/18 09:46:54;;;;;;;1.87;1.70;;;;;;;21.16;50.78;94351.13;5071917;28;20455;-58
2023/01/18 09:49:32;;;;;;;1.57;0.93;;;;;;;22.21;50.38;94353.94;5070501;28;20440;-57
2023/01/18 09:52:18;;;;;;;0.90;0.80;;;;;;;22.52;47.12;94377.84;5071483;28;20833;-58
2023/01/18 09:54:54;;;;;;;0.90;0.50;;;;;;;22.49;46.56;94375.13;5071276;28;20532;-57
2023/01/18 09:57:36;;;;;;;0.40;0.30;;;;;;;21.58;48.37;94361.06;5071497;28;20854;-58
2023/01/18 10:00:19;;;;;;;4.20;0.67;;;;;;;23.65;47.82;94367.50;5071750;28;20805;-57
2023/01/18 10:02:54;;;;;;;1.17;0.40;;;;;;;24.10;41.84;94341.91;5071243;28;20438;-57
2023/01/18 10:05:28;;;;;;;1.80;1.00;;;;;;;22.36;45.21;94349.47;5071380;28;20457;-58
2023/01/18 10:08:06;;;;;;;12.77;0.60;;;;;;;20.45;50.77;94348.19;5071647;28;20441;-58
2023/01/18 10:10:38;;;;;;;0.40;0.30;;;;;;;19.46;50.62;94357.53;5070958;28;20433;-58
2023/01/18 10:13:21;;;;;;;5.80;1.50;;;;;;;19.17;53.59;94362.53;5070762;28;20484;-59
2023/01/18 10:15:49;;;;;;;0.50;0.37;;;;;;;19.45;51.50;94380.19;5070899;28;20440;-59
2023/01/18 10:18:20;;;;;;;1.13;1.13;;;;;;;19.39;50.24;94391.50;5071578;28;20472;-59
2023/01/18 10:20:54;;;;;;;0.93;0.93;;;;;;;19.66;49.73;94379.88;5071472;28;20441;-58
2023/01/18 10:23:27;;;;;;;0.47;0.40;;;;;;;19.76;49.10;94371.28;5071006;28;20517;-58
2023/01/18 10:26:02;;;;;;;7.30;1.90;;;;;;;18.59;49.94;94318.47;5071106;28;20453;-59
2023/01/18 10:28:44;;;;;;;0.93;0.93;;;;;;;18.78;49.03;94401.78;5070943;28;20937;-59
2023/01/18 10:31:26;;;;;;;14.23;2.77;;;;;;;18.52;49.70;94414.88;5071028;28;20417;-60
2023/01/18 10:33:59;;;;;;;0.40;0.30;;;;;;;19.52;51.11;94395.69;5071226;28;20429;-59
2023/01/18 10:36:33;;;;;;;8.60;1.07;;;;;;;18.54;51.19;94378.53;5071420;28;20507;-59
2023/01/18 10:39:05;;;;;;;0.93;0.93;;;;;;;17.60;53.91;94378.03;5071083;28;20441;-60
2023/01/18 10:41:39;;;;;;;2.93;1.17;;;;;;;17.02;54.85;94373.81;5071264;28;20868;-60
2023/01/18 10:44:09;;;;;;;1.17;1.07;;;;;;;16.66;55.42;94373.72;5070946;28;20968;-61
2023/01/18 10:46:37;;;;;;;0.83;0.80;;;;;;;17.05;54.92;94365.09;5071433;28;20871;-60
2023/01/18 10:49:08;;;;;;;0.80;0.80;;;;;;;16.51;57.37;94318.91;5071192;28;20432;-60
2023/01/18 10:51:39;;;;;;;2.60;2.40;;;;;;;16.54;58.19;94354.16;5070144;28;20493;-62
2023/01/18 10:54:25;;;;;;;0.50;0.47;;;;;;;17.48;57.57;94374.53;5070967;28;20430;-60
2023/01/18 10:57:02;;;;;;;4.27;0.67;;;;;;;17.97;55.39;94314.41;5071005;28;20422;-61
2023/01/18 10:59:36;;;;;;;1.03;1.03;;;;;;;18.95;52.87;94380.00;5070813;28;20883;-62
2023/01/18 11:02:05;;;;;;;0.70;0.60;;;;;;;19.36;52.62;94384.09;5071019;28;20421;-61
2023/01/18 11:04:35;;;;;;;3.70;1.10;;;;;;;19.67;51.25;94380.66;5071052;28;20426;-61
2023/01/18 11:07:05;;;;;;;1.13;1.03;;;;;;;20.22;50.46;94381.16;5074486;28;20504;-60
2023/01/18 11:09:41;;;;;;;1.63;1.07;;;;;;;20.27;49.22;94372.84;5074795;28;20434;-59
2023/01/18 11:12:35;;;;;;;0.40;0.30;;;;;;;20.11;49.08;94376.69;5074357;28;20563;-59
2023/01/18 11:15:28;;;;;;;14.83;2.60;;;;;;;19.58;50.14;94364.72;5074518;28;20512;-59
2023/01/18 11:18:11;;;;;;;5.70;2.07;;;;;;;18.91;51.26;94371.88;5074281;28;20811;-59
2023/01/18 11:20:50;;;;;;;2.00;2.00;;;;;;;18.90;50.17;94321.97;5074278;28;20473;-59
2023/01/18 11:23:30;;;;;;;0.70;0.70;;;;;;;18.30;50.35;94306.13;5074540;28;20504;-59
2023/01/18 11:26:01;;;;;;;2.37;1.60;;;;;;;17.84;52.95;94334.31;5074159;28;20440;-61
2023/01/18 11:28:35;;;;;;;2.07;1.90;;;;;;;17.76;53.19;94378.88;5073925;28;20484;-60
2023/01/18 11:31:10;;;;;;;0.40;0.30;;;;;;;17.29;54.78;94393.03;5073976;28;20426;-60
2023/01/18 11:33:49;;;;;;;5.10;1.07;;;;;;;17.45;53.97;94372.50;5074339;28;20471;-61
2023/01/18 11:36:20;;;;;;;0.50;0.50;;;;;;;17.27;54.42;94361.25;5074067;28;20430;-61
2023/01/18 11:38:48;;;;;;;1.27;1.17;;;;;;;16.74;57.13;94380.09;5073890;28;20491;-61
2023/01/18 11:41:22;;;;;;;0.53;0.50;;;;;;;17.04;56.60;94379.63;5072968;28;20915;-60
2023/01/18 11:44:02;;;;;;;1.17;1.17;;;;;;;17.03;56.13;94382.59;5073662;28;20429;-60
2023/01/18 11:46:43;;;;;;;0.40;0.40;;;;;;;16.69;57.46;94377.63;5073722;28;20442;-61
2023/01/18 11:49:36;;;;;;;1.77;1.30;;;;;;;16.59;56.80;94383.38;5073396;28;20843;-61
2023/01/18 11:52:17;;;;;;;1.43;1.13;;;;;;;16.22;57.70;94409.91;5072882;28;20434;-61
2023/01/18 11:54:49;;;;;;;8.43;1.60;;;;;;;16.14;57.61;94408.09;5072557;28;20472;-61
2023/01/18 11:57:18;;;;;;;0.40;0.20;;;;;;;16.10;58.08;94395.72;5073214;28;20422;-61
2023/01/18 11:59:48;;;;;;;4.40;2.80;;;;;;;16.02;56.98;94413.38;5073134;28;20445;-61
2023/01/18 12:02:44;;;;;;;3.50;0.43;;;;;;;16.05;58.06;94402.03;5073294;28;20776;-60
2023/01/18 12:05:26;;;;;;;9.20;0.73;;;;;;;15.53;58.36;94326.78;5073606;28;20495;-60
2023/01/18 12:08:10;;;;;;;1.70;1.53;;;;;;;15.82;57.87;94408.78;5073377;28;20473;-60
2023/01/18 12:10:49;;;;;;;0.40;0.33;;;;;;;16.09;57.59;94396.84;5072749;28;20421;-61
2023/01/18 12:13:34;;;;;;;2.00;1.07;;;;;;;15.98;57.21;94425.81;5073070;28;20913;-61
2023/01/18 12:16:15;;;;;;;1.90;1.73;;;;;;;16.17;57.65;94403.97;5073150;28;20436;-60
2023/01/18 12:19:15;;;;;;;0.83;0.83;;;;;;;16.05;57.40;94412.72;5072857;28;20847;-61
2023/01/18 12:21:59;;;;;;;0.60;0.57;;;;;;;16.23;57.49;94427.53;5072820;28;20612;-61
2023/01/18 12:24:43;;;;;;;5.70;2.60;;;;;;;16.62;56.76;94404.91;5072970;28;20438;-61
2023/01/18 12:27:20;;;;;;;0.50;0.50;;;;;;;16.74;56.22;94415.66;5072726;28;20516;-61